Time;durP1;ratioP1;P1;durP2;ratioP2;P2;SDS_P1;SDS_P2;PMS_P1;PMS_P2;Temp;Humidity;BMP_temperature;BMP_pressure;BME280_temperature;BME280_humidity;BME280_pressure;Samples;Min_cycle;Max_cycle;Signal;HPM_P1;HPM_P2
2023/11/11 00:01:33;;;;;;;;;;;;;;;14.22;43.71;100113.38;5082793;28;1134;-43
2023/11/11 00:03:58;;;;;;;;;;;;;;;14.06;43.71;100121.59;5088448;28;2322;-48
2023/11/11 00:06:24;;;;;;;;;;;;;;;14.07;43.63;100112.69;5081119;28;901;-47
2023/11/11 00:08:49;;;;;;;;;;;;;;;14.72;44.92;100128.25;5096258;28;1097;-47
2023/11/11 00:11:15;;;;;;;;;;;;;;;14.89;45.97;100134.97;5095869;28;1030;-44
2023/11/11 00:13:40;;;;;;;;;;;;;;;14.51;45.83;100120.13;5088494;28;1062;-49
2023/11/11 00:16:06;;;;;;;;;;;;;;;14.35;45.21;100110.66;5089514;28;1909;-47
2023/11/11 00:18:32;;;;;;;;;;;;;;;14.23;44.75;100108.94;5094552;28;965;-43
2023/11/11 00:21:00;;;;;;;;;;;;;;;14.25;44.40;100115.78;5081678;28;1229;-46
2023/11/11 00:23:26;;;;;;;;;;;;;;;14.17;44.16;100129.59;5083956;28;1106;-48
2023/11/11 00:25:51;;;;;;;;;;;;;;;14.16;43.88;100127.06;5095690;28;1414;-47
2023/11/11 00:28:17;;;;;;;;;;;;;;;14.15;43.58;100128.00;5088289;28;1157;-45
2023/11/11 00:30:44;;;;;;;;;;;;;;;15.13;45.44;100128.75;5063568;28;913;-47
2023/11/11 00:33:10;;;;;;;;;;;;;;;14.71;46.06;100109.84;5094815;28;2284;-45
2023/11/11 00:35:36;;;;;;;;;;;;;;;14.49;45.17;100107.00;5104694;28;1910;-47
2023/11/11 00:38:03;;;;;;;;;;;;;;;14.30;44.97;100096.94;5076151;28;1040;-43
2023/11/11 00:40:29;;;;;;;;;;;;;;;14.26;44.86;100090.19;5091842;28;1042;-45
2023/11/11 00:42:55;;;;;;;;;;;;;;;14.24;44.15;100092.09;5083235;28;1047;-48
2023/11/11 00:45:22;;;;;;;;;;;;;;;14.23;44.02;100085.97;5097890;28;1220;-49
2023/11/11 00:47:48;;;;;;;;;;;;;;;14.14;43.84;100070.78;5103972;28;1349;-50
2023/11/11 00:50:13;;;;;;;;;;;;;;;14.11;43.48;100071.84;5070514;28;1039;-47
2023/11/11 00:52:39;;;;;;;;;;;;;;;14.28;44.37;100078.53;5058283;28;1059;-46
2023/11/11 00:55:07;;;;;;;;;;;;;;;15.08;45.86;100074.44;5097455;28;1105;-49
2023/11/11 00:57:32;;;;;;;;;;;;;;;14.55;45.90;100072.13;5111411;28;1910;-46
2023/11/11 00:59:58;;;;;;;;;;;;;;;14.35;45.38;100072.81;5094857;28;1073;-44
2023/11/11 01:02:24;;;;;;;;;;;;;;;14.35;44.83;100072.81;5075145;28;1016;-48
2023/11/11 01:04:49;;;;;;;;;;;;;;;14.19;44.50;100056.25;5077227;28;2623;-46
2023/11/11 01:07:15;;;;;;;;;;;;;;;15.16;45.95;100042.91;5099401;28;1069;-47
2023/11/11 01:09:41;;;;;;;;;;;;;;;14.68;45.75;100040.28;5085750;28;1077;-45
2023/11/11 01:12:07;;;;;;;;;;;;;;;14.45;45.19;100034.94;5090553;28;1050;-47
2023/11/11 01:14:34;;;;;;;;;;;;;;;14.42;44.90;100035.16;5102251;28;1039;-47
2023/11/11 01:17:02;;;;;;;;;;;;;;;14.32;44.38;100028.88;5109985;28;1909;-48
2023/11/11 01:19:28;;;;;;;;;;;;;;;14.17;44.27;100028.22;5085635;28;1146;-46
2023/11/11 01:21:54;;;;;;;;;;;;;;;14.28;44.06;100035.38;5099986;28;1079;-46
2023/11/11 01:24:19;;;;;;;;;;;;;;;14.73;45.32;100028.50;5067163;28;1397;-46
2023/11/11 01:26:45;;;;;;;;;;;;;;;14.42;45.24;100040.47;5114589;28;1113;-46
2023/11/11 01:29:11;;;;;;;;;;;;;;;15.73;46.28;100026.09;5111750;28;1257;-49
2023/11/11 01:31:36;;;;;;;;;;;;;;;15.05;46.33;100033.13;5098550;28;1034;-47
2023/11/11 01:34:02;;;;;;;;;;;;;;;14.77;45.76;100029.94;5077606;28;2417;-44
2023/11/11 01:36:28;;;;;;;;;;;;;;;14.56;45.06;100026.16;5078487;28;1983;-49
2023/11/11 01:38:54;;;;;;;;;;;;;;;14.50;44.88;100013.41;5095090;28;1136;-47
2023/11/11 01:41:19;;;;;;;;;;;;;;;14.39;44.54;100013.38;5094236;28;1069;-48
2023/11/11 01:43:46;;;;;;;;;;;;;;;14.38;43.92;100006.41;5097562;28;1082;-45
2023/11/11 01:46:11;;;;;;;;;;;;;;;14.33;43.39;100007.59;5086095;28;1063;-49
2023/11/11 01:48:37;;;;;;;;;;;;;;;14.57;44.54;100005.84;5066479;28;1095;-42
2023/11/11 01:51:03;;;;;;;;;;;;;;;14.92;45.46;99999.66;5086043;28;1027;-43
2023/11/11 01:53:28;;;;;;;;;;;;;;;14.56;45.60;100001.53;5087761;28;1106;-46
2023/11/11 01:55:54;;;;;;;;;;;;;;;15.32;46.29;99988.69;5090884;28;1984;-47
2023/11/11 01:58:20;;;;;;;;;;;;;;;14.85;45.75;99987.03;5073573;28;1135;-48
2023/11/11 02:00:45;;;;;;;;;;;;;;;14.56;45.27;99983.81;5060577;28;1035;-48
2023/11/11 02:03:13;;;;;;;;;;;;;;;14.52;44.68;99977.09;5094446;28;2371;-47
2023/11/11 02:05:39;;;;;;;;;;;;;;;14.42;44.38;99963.72;5092843;28;1029;-47
2023/11/11 02:08:05;;;;;;;;;;;;;;;14.38;44.01;99956.16;5073357;28;1055;-45
2023/11/11 02:10:31;;;;;;;;;;;;;;;14.40;43.71;99951.56;5086222;28;1004;-51
2023/11/11 02:12:56;;;;;;;;;;;;;;;14.24;43.85;99946.59;5099142;28;1141;-47
2023/11/11 02:15:22;;;;;;;;;;;;;;;15.03;45.49;99952.97;5085946;28;1909;-47
2023/11/11 02:17:48;;;;;;;;;;;;;;;14.87;45.49;99946.22;5102014;28;1188;-42
2023/11/11 02:20:14;;;;;;;;;;;;;;;14.59;45.23;99950.16;5086210;28;1138;-45
2023/11/11 02:22:40;;;;;;;;;;;;;;;14.52;44.90;99934.75;5097575;28;1022;-47
2023/11/11 02:25:06;;;;;;;;;;;;;;;14.37;44.14;99944.72;5071833;28;1082;-49
2023/11/11 02:27:31;;;;;;;;;;;;;;;14.19;44.29;99939.88;5107852;28;2327;-43
2023/11/11 02:29:57;;;;;;;;;;;;;;;14.95;45.56;99958.03;5089907;28;1696;-46
2023/11/11 02:32:22;;;;;;;;;;;;;;;15.05;45.81;99957.16;5079728;28;908;-48
2023/11/11 02:34:48;;;;;;;;;;;;;;;14.61;45.76;99943.78;5090939;28;2068;-50
2023/11/11 02:37:13;;;;;;;;;;;;;;;14.50;44.92;99949.91;5096186;28;1901;-46
2023/11/11 02:39:40;;;;;;;;;;;;;;;14.43;44.75;99941.59;5078395;28;1121;-47
2023/11/11 02:42:06;;;;;;;;;;;;;;;14.36;44.14;99935.09;5085679;28;1035;-50
2023/11/11 02:44:31;;;;;;;;;;;;;;;14.30;43.96;99919.66;5090791;28;1069;-46
2023/11/11 02:46:57;;;;;;;;;;;;;;;14.24;43.63;99918.34;5077699;28;1106;-45
2023/11/11 02:49:23;;;;;;;;;;;;;;;14.17;43.84;99923.25;5113484;28;1049;-49
2023/11/11 02:51:49;;;;;;;;;;;;;;;14.22;43.47;99932.63;5083780;28;1205;-45
2023/11/11 02:54:14;;;;;;;;;;;;;;;14.11;43.51;99920.25;5078431;28;1105;-47
2023/11/11 02:56:40;;;;;;;;;;;;;;;14.07;43.33;99911.69;5082282;28;1905;-47
2023/11/11 02:59:05;;;;;;;;;;;;;;;14.04;43.26;99919.88;5077289;28;1077;-47
2023/11/11 03:01:35;;;;;;;;;;;;;;;14.04;43.27;99919.88;5059179;28;1109;-44
2023/11/11 03:04:00;;;;;;;;;;;;;;;14.05;43.05;99932.97;5088972;28;2088;-45
2023/11/11 03:06:26;;;;;;;;;;;;;;;15.27;45.10;99936.91;5066446;28;1035;-48
2023/11/11 03:08:51;;;;;;;;;;;;;;;15.19;44.89;99931.38;5089737;28;1121;-48
2023/11/11 03:11:17;;;;;;;;;;;;;;;16.18;45.91;99929.59;5091162;28;1087;-47
2023/11/11 03:13:45;;;;;;;;;;;;;;;16.15;46.72;99935.13;5088908;28;1126;-49
2023/11/11 03:16:10;;;;;;;;;;;;;;;15.34;47.31;99933.75;5090044;28;1975;-47
2023/11/11 03:18:37;;;;;;;;;;;;;;;15.03;46.81;99927.28;5076223;28;987;-50
2023/11/11 03:21:03;;;;;;;;;;;;;;;14.88;45.78;99910.81;5091556;28;1165;-51
2023/11/11 03:23:28;;;;;;;;;;;;;;;14.79;45.00;99909.72;5088664;28;978;-49
2023/11/11 03:25:54;;;;;;;;;;;;;;;14.73;44.94;99904.91;5090215;28;1058;-46
2023/11/11 03:28:19;;;;;;;;;;;;;;;14.59;44.65;99907.78;5075470;28;1003;-45
2023/11/11 03:30:46;;;;;;;;;;;;;;;14.50;44.33;99899.59;5083734;28;1177;-48
2023/11/11 03:33:11;;;;;;;;;;;;;;;14.50;44.04;99894.31;5083394;28;1961;-48
2023/11/11 03:35:37;;;;;;;;;;;;;;;14.35;44.15;99899.00;5089711;28;1902;-44
2023/11/11 03:38:02;;;;;;;;;;;;;;;14.40;43.75;99894.19;5084827;28;999;-49
2023/11/11 03:40:28;;;;;;;;;;;;;;;14.35;43.71;99898.19;5097736;28;1109;-49
2023/11/11 03:42:54;;;;;;;;;;;;;;;14.34;43.71;99894.69;5077636;28;832;-47
2023/11/11 03:45:21;;;;;;;;;;;;;;;14.35;43.41;99879.66;5090581;28;1208;-48
2023/11/11 03:47:52;;;;;;;;;;;;;;;14.20;43.61;99875.41;5070943;28;1551;-48
2023/11/11 03:50:17;;;;;;;;;;;;;;;14.15;43.45;99872.28;5071478;28;1131;-49
2023/11/11 03:52:43;;;;;;;;;;;;;;;14.23;43.27;99881.44;5075905;28;1425;-47
2023/11/11 03:55:08;;;;;;;;;;;;;;;14.15;43.63;99864.34;5082841;28;1166;-51
2023/11/11 03:57:34;;;;;;;;;;;;;;;14.14;43.12;99881.19;5102882;28;1906;-50
2023/11/11 04:00:00;;;;;;;;;;;;;;;14.07;43.34;99869.38;5091380;28;1125;-49
2023/11/11 04:02:26;;;;;;;;;;;;;;;14.04;43.33;99878.41;5111741;28;1359;-50
2023/11/11 04:04:52;;;;;;;;;;;;;;;14.08;43.24;99871.06;5080913;28;1866;-46
2023/11/11 04:07:18;;;;;;;;;;;;;;;13.95;43.37;99861.44;5077606;28;848;-47
2023/11/11 04:09:43;;;;;;;;;;;;;;;13.92;43.38;99860.81;5105133;28;1231;-47
2023/11/11 04:12:10;;;;;;;;;;;;;;;13.96;43.31;99862.28;5126868;27;1253;-44
2023/11/11 04:14:35;;;;;;;;;;;;;;;15.04;45.48;99857.47;5094585;28;1011;-47
2023/11/11 04:17:01;;;;;;;;;;;;;;;14.87;45.64;99865.94;5085683;28;1901;-44
2023/11/11 04:19:27;;;;;;;;;;;;;;;14.44;45.74;99865.69;5124042;28;1133;-44
2023/11/11 04:21:54;;;;;;;;;;;;;;;14.32;45.31;99859.53;5096211;28;1085;-45
2023/11/11 04:24:20;;;;;;;;;;;;;;;14.26;44.62;99862.69;5094838;28;1138;-47
2023/11/11 04:26:45;;;;;;;;;;;;;;;14.26;44.18;99860.88;5095816;28;1105;-50
2023/11/11 04:29:11;;;;;;;;;;;;;;;14.15;43.86;99856.41;5077926;28;1044;-49
2023/11/11 04:31:37;;;;;;;;;;;;;;;14.00;44.24;99849.63;5095854;28;926;-50
2023/11/11 04:34:02;;;;;;;;;;;;;;;14.03;43.76;99854.72;5096017;28;1880;-47
2023/11/11 04:36:28;;;;;;;;;;;;;;;15.21;45.14;99852.63;5095367;28;1885;-49
2023/11/11 04:38:54;;;;;;;;;;;;;;;14.61;45.90;99839.69;5097224;28;1049;-43
2023/11/11 04:41:20;;;;;;;;;;;;;;;14.32;45.66;99831.31;5100096;28;1138;-43
2023/11/11 04:43:46;;;;;;;;;;;;;;;14.30;44.74;99835.00;5099430;28;1138;-42
2023/11/11 04:46:13;;;;;;;;;;;;;;;14.27;44.46;99836.09;5100100;28;1018;-43
2023/11/11 04:48:39;;;;;;;;;;;;;;;14.22;44.01;99832.13;5099579;28;1045;-48
2023/11/11 04:51:05;;;;;;;;;;;;;;;14.17;43.90;99838.63;5099754;28;1101;-46
2023/11/11 04:53:31;;;;;;;;;;;;;;;14.74;44.94;99834.28;5099602;28;1158;-38
2023/11/11 04:55:57;;;;;;;;;;;;;;;15.05;45.65;99835.31;5098363;28;1905;-37
2023/11/11 04:58:24;;;;;;;;;;;;;;;14.54;45.74;99829.59;5099295;28;1038;-39
2023/11/11 05:00:49;;;;;;;;;;;;;;;14.47;45.43;99830.19;5099416;28;1050;-38
2023/11/11 05:03:17;;;;;;;;;;;;;;;14.33;44.73;99834.75;5099321;28;1896;-41
2023/11/11 05:05:42;;;;;;;;;;;;;;;14.25;44.62;99839.81;5099352;28;1065;-49
2023/11/11 05:08:08;;;;;;;;;;;;;;;14.18;44.05;99847.41;5098714;28;1111;-49
2023/11/11 05:10:34;;;;;;;;;;;;;;;14.15;43.96;99839.69;5099004;28;1091;-43
2023/11/11 05:13:01;;;;;;;;;;;;;;;14.61;44.75;99837.91;5085830;28;1103;-48
2023/11/11 05:15:27;;;;;;;;;;;;;;;14.99;45.75;99838.47;5090806;28;1094;-42
2023/11/11 05:17:53;;;;;;;;;;;;;;;14.66;45.35;99845.47;5094622;28;1909;-46
2023/11/11 05:20:18;;;;;;;;;;;;;;;14.38;45.13;99848.47;5093232;28;927;-46
2023/11/11 05:22:44;;;;;;;;;;;;;;;14.35;44.51;99854.00;5098427;28;1090;-45
2023/11/11 05:25:12;;;;;;;;;;;;;;;14.36;44.22;99865.44;5090745;28;1210;-43
2023/11/11 05:27:39;;;;;;;;;;;;;;;14.20;43.76;99861.34;5094288;28;1087;-46
2023/11/11 05:30:05;;;;;;;;;;;;;;;14.18;43.79;99868.56;5098901;28;1495;-40
2023/11/11 05:32:31;;;;;;;;;;;;;;;15.70;41.90;99856.66;5067156;28;1254;-38
2023/11/11 05:34:59;;;;;;;;;;;;;;;16.84;39.59;99866.44;5092494;28;2174;-47
2023/11/11 05:37:25;;;;;;;;;;;;;;;17.10;39.23;99859.81;5080408;28;2258;-41
2023/11/11 05:39:50;;;;;;;;;;;;;;;16.32;40.83;99870.03;5098366;28;1074;-40
2023/11/11 05:42:16;;;;;;;;;;;;;;;16.70;40.62;99866.81;5083009;28;1174;-36
2023/11/11 05:44:41;;;;;;;;;;;;;;;17.10;39.79;99871.28;5085655;28;840;-40
2023/11/11 05:47:10;;;;;;;;;;;;;;;16.44;41.62;99865.47;5091601;28;1047;-37
2023/11/11 05:49:35;;;;;;;;;;;;;;;16.65;41.34;99869.88;5078504;28;999;-37
2023/11/11 05:52:01;;;;;;;;;;;;;;;17.47;39.94;99875.09;5092853;28;1062;-38
2023/11/11 05:54:27;;;;;;;;;;;;;;;16.79;41.26;99871.31;5090186;28;1157;-37
2023/11/11 05:56:53;;;;;;;;;;;;;;;16.39;42.24;99862.38;5092934;28;1967;-39
2023/11/11 05:59:18;;;;;;;;;;;;;;;17.39;40.59;99861.66;5087332;28;1050;-40
2023/11/11 06:01:45;;;;;;;;;;;;;;;16.87;41.83;99857.34;5084749;28;1061;-39
2023/11/11 06:04:11;;;;;;;;;;;;;;;16.48;42.87;99847.47;5097984;28;2512;-41
2023/11/11 06:06:42;;;;;;;;;;;;;;;16.27;43.18;99845.69;5094414;28;1042;-39
2023/11/11 06:09:09;;;;;;;;;;;;;;;17.11;42.14;99840.25;5093396;28;908;-38
2023/11/11 06:11:45;;;;;;;;;;;;;;;17.18;41.72;99838.72;5098225;28;1097;-45
2023/11/11 06:14:11;;;;;;;;;;;;;;;16.58;43.43;99842.19;5098138;28;1030;-39
2023/11/11 06:16:38;;;;;;;;;;;;;;;16.35;44.03;99845.84;5079691;28;1922;-41
2023/11/11 06:19:03;;;;;;;;;;;;;;;16.25;44.76;99860.88;5087827;28;1139;-38
2023/11/11 06:21:29;;;;;;;;;;;;;;;17.18;42.43;99856.47;5083806;28;1050;-49
2023/11/11 06:23:55;;;;;;;;;;;;;;;16.58;43.75;99847.50;5098477;28;1125;-44
2023/11/11 06:26:21;;;;;;;;;;;;;;;16.28;44.77;99839.41;5084375;28;1110;-47
2023/11/11 06:28:48;;;;;;;;;;;;;;;17.27;43.00;99841.53;5090998;28;1166;-50
2023/11/11 06:31:13;;;;;;;;;;;;;;;17.01;43.13;99833.06;5091444;28;1012;-48
2023/11/11 06:33:40;;;;;;;;;;;;;;;16.58;44.29;99829.72;5090571;28;2292;-45
2023/11/11 06:36:07;;;;;;;;;;;;;;;16.35;44.86;99821.16;5091359;28;1905;-47
2023/11/11 06:38:32;;;;;;;;;;;;;;;17.09;43.37;99815.63;5097670;28;1034;-51
2023/11/11 06:40:58;;;;;;;;;;;;;;;17.18;43.15;99813.94;5084395;28;1173;-47
2023/11/11 06:43:23;;;;;;;;;;;;;;;16.68;44.32;99797.06;5111556;28;1076;-43
2023/11/11 06:45:49;;;;;;;;;;;;;;;16.44;45.12;99799.09;5081031;28;1055;-46
2023/11/11 06:48:16;;;;;;;;;;;;;;;16.26;45.28;99802.41;5077701;28;1237;-43
2023/11/11 06:50:41;;;;;;;;;;;;;;;16.88;44.30;99822.69;5077301;28;1027;-46
2023/11/11 06:53:09;;;;;;;;;;;;;;;17.46;42.82;99817.59;5077408;28;1094;-47
2023/11/11 06:55:35;;;;;;;;;;;;;;;16.83;44.46;99822.25;5088993;28;1988;-42
2023/11/11 06:58:02;;;;;;;;;;;;;;;16.57;45.30;99825.41;5097420;28;1053;-49
2023/11/11 07:00:31;;;;;;;;;;;;;;;16.33;45.60;99826.56;5082823;28;1014;-48
2023/11/11 07:02:58;;;;;;;;;;;;;;;17.06;44.28;99807.88;5083752;28;1458;-44
2023/11/11 07:05:24;;;;;;;;;;;;;;;17.21;43.74;99811.00;5090571;28;2531;-47
2023/11/11 07:07:50;;;;;;;;;;;;;;;16.71;45.14;99799.44;5081619;28;1101;-45
2023/11/11 07:10:15;;;;;;;;;;;;;;;16.47;45.60;99800.63;5090559;28;1225;-45
2023/11/11 07:12:41;;;;;;;;;;;;;;;16.43;45.81;99799.25;5076451;28;1141;-45
2023/11/11 07:15:10;;;;;;;;;;;;;;;17.50;43.60;99799.50;5090691;28;1133;-47
2023/11/11 07:17:35;;;;;;;;;;;;;;;16.94;44.76;99802.72;5084273;28;1960;-44
2023/11/11 07:20:01;;;;;;;;;;;;;;;16.61;45.36;99802.09;5079761;28;1238;-41
2023/11/11 07:22:27;;;;;;;;;;;;;;;16.43;45.97;99797.44;5090773;28;1138;-42
2023/11/11 07:24:52;;;;;;;;;;;;;;;16.32;46.46;99790.41;5089206;28;1022;-47
2023/11/11 07:27:19;;;;;;;;;;;;;;;17.46;44.23;99779.50;5090509;28;979;-43
2023/11/11 07:29:45;;;;;;;;;;;;;;;17.03;44.84;99774.47;5097299;28;1054;-48
2023/11/11 07:32:12;;;;;;;;;;;;;;;16.67;45.85;99782.94;5086095;28;1227;-43
2023/11/11 07:34:37;;;;;;;;;;;;;;;16.55;45.93;99778.75;5084106;28;2518;-52
2023/11/11 07:37:03;;;;;;;;;;;;;;;16.82;45.64;99771.91;5082821;28;1906;-43
2023/11/11 07:39:29;;;;;;;;;;;;;;;17.19;44.63;99747.38;5090913;28;1038;-45
2023/11/11 07:41:54;;;;;;;;;;;;;;;16.73;45.70;99753.19;5088980;28;1011;-48
2023/11/11 07:44:22;;;;;;;;;;;;;;;16.52;46.41;99759.44;5077514;28;1146;-44
2023/11/11 07:46:49;;;;;;;;;;;;;;;16.61;46.30;99748.97;5089213;28;1011;-44
2023/11/11 07:49:15;;;;;;;;;;;;;;;17.19;44.94;99755.34;5082531;28;1058;-44
2023/11/11 07:51:41;;;;;;;;;;;;;;;16.71;46.00;99752.50;5083461;28;1177;-44
2023/11/11 07:54:06;;;;;;;;;;;;;;;16.50;46.75;99744.59;5089707;28;1174;-43
2023/11/11 07:56:32;;;;;;;;;;;;;;;16.46;46.91;99740.56;5082499;28;1897;-44
2023/11/11 07:58:58;;;;;;;;;;;;;;;17.36;44.79;99747.63;5096417;28;1089;-46
2023/11/11 08:01:24;;;;;;;;;;;;;;;16.81;45.92;99743.69;5096083;28;1136;-49
2023/11/11 08:03:50;;;;;;;;;;;;;;;16.89;46.14;99730.56;5095501;28;2485;-42
2023/11/11 08:06:16;;;;;;;;;;;;;;;17.11;45.51;99734.78;5096279;28;1029;-39
2023/11/11 08:08:41;;;;;;;;;;;;;;;16.72;46.29;99738.22;5082579;28;1046;-43
2023/11/11 08:11:08;;;;;;;;;;;;;;;16.47;47.09;99735.13;5095785;28;1251;-47
2023/11/11 08:13:34;;;;;;;;;;;;;;;16.34;47.61;99745.13;5089008;28;1093;-46
2023/11/11 08:16:00;;;;;;;;;;;;;;;16.54;47.24;99751.34;5087135;28;1905;-48
2023/11/11 08:18:26;;;;;;;;;;;;;;;17.35;45.22;99770.69;5091939;28;955;-44
2023/11/11 08:20:51;;;;;;;;;;;;;;;16.82;46.28;99777.22;5079082;28;1003;-49
2023/11/11 08:23:17;;;;;;;;;;;;;;;16.51;47.13;99771.06;5079117;28;1160;-45
2023/11/11 08:25:42;;;;;;;;;;;;;;;16.37;47.34;99761.63;5094661;28;1114;-47
2023/11/11 08:28:08;;;;;;;;;;;;;;;16.76;47.00;99752.94;5070905;28;1119;-46
2023/11/11 08:30:33;;;;;;;;;;;;;;;17.01;46.07;99737.41;5081695;28;1316;-43
2023/11/11 08:32:59;;;;;;;;;;;;;;;16.60;47.10;99736.69;5088120;28;1106;-45
2023/11/11 08:35:25;;;;;;;;;;;;;;;16.39;47.71;99740.25;5094938;28;2692;-42
2023/11/11 08:37:51;;;;;;;;;;;;;;;16.22;48.21;99728.47;5083422;28;1910;-46
2023/11/11 08:40:17;;;;;;;;;;;;;;;17.21;46.35;99718.00;5082427;28;1129;-47
2023/11/11 08:42:42;;;;;;;;;;;;;;;17.03;46.42;99721.34;5089104;28;1114;-43
2023/11/11 08:45:13;;;;;;;;;;;;;;;16.62;47.59;99722.28;5079620;28;1235;-47
2023/11/11 08:47:38;;;;;;;;;;;;;;;16.49;48.09;99713.75;5095209;28;1185;-42
2023/11/11 08:50:06;;;;;;;;;;;;;;;17.49;45.78;99712.75;5083052;28;1098;-42
2023/11/11 08:52:34;;;;;;;;;;;;;;;16.93;47.03;99701.91;5095250;28;1209;-45
2023/11/11 08:55:00;;;;;;;;;;;;;;;16.60;47.80;99692.38;5083176;28;1182;-47
2023/11/11 08:57:25;;;;;;;;;;;;;;;16.39;48.39;99668.59;5092637;28;1914;-44
2023/11/11 08:59:51;;;;;;;;;;;;;;;16.29;48.41;99660.63;5095303;28;1040;-43
2023/11/11 09:02:17;;;;;;;;;;;;;;;17.23;46.56;99650.41;5095599;28;876;-46
2023/11/11 09:04:42;;;;;;;;;;;;;;;17.17;46.53;99656.31;5089341;28;2647;-44
2023/11/11 09:07:08;;;;;;;;;;;;;;;16.65;48.15;99670.72;5087479;28;986;-46
2023/11/11 09:09:34;;;;;;;;;;;;;;;16.49;48.38;99668.59;5090001;28;1014;-47
2023/11/11 09:12:01;;;;;;;;;;;;;;;16.57;48.28;99679.38;5094756;28;1213;-41
2023/11/11 09:14:27;;;;;;;;;;;;;;;17.55;45.99;99676.78;5095637;28;1038;-45
2023/11/11 09:16:52;;;;;;;;;;;;;;;16.93;47.25;99670.03;5095434;28;1909;-46
2023/11/11 09:19:18;;;;;;;;;;;;;;;16.62;47.97;99679.81;5081413;28;1169;-43
2023/11/11 09:21:43;;;;;;;;;;;;;;;16.84;47.68;99667.22;5085034;28;1030;-44
2023/11/11 09:24:09;;;;;;;;;;;;;;;17.31;46.55;99665.66;5093938;28;1068;-47
2023/11/11 09:26:35;;;;;;;;;;;;;;;16.84;47.56;99653.94;5097420;28;1094;-42
2023/11/11 09:29:00;;;;;;;;;;;;;;;16.59;48.18;99642.91;5085472;28;1065;-41
2023/11/11 09:31:29;;;;;;;;;;;;;;;16.61;48.21;99629.50;5087723;28;1078;-42
2023/11/11 09:34:00;;;;;;;;;;;;;;;16.88;47.52;99636.72;5085485;28;1795;-43
2023/11/11 09:36:27;;;;;;;;;;;;;;;16.52;48.32;99634.66;5082507;28;1980;-38
2023/11/11 09:38:52;;;;;;;;;;;;;;;16.35;48.91;99624.75;5092433;28;1023;-40
2023/11/11 09:41:17;;;;;;;;;;;;;;;16.26;49.03;99618.44;5091674;28;1135;-42
2023/11/11 09:43:43;;;;;;;;;;;;;;;17.04;47.60;99622.03;5092068;28;1177;-41
2023/11/11 09:46:09;;;;;;;;;;;;;;;17.05;47.19;99610.41;5083978;28;998;-42
2023/11/11 09:48:35;;;;;;;;;;;;;;;16.67;48.23;99609.50;5060308;28;1122;-44
2023/11/11 09:51:00;;;;;;;;;;;;;;;16.44;48.93;99613.28;5078630;28;1054;-48
2023/11/11 09:53:26;;;;;;;;;;;;;;;17.36;46.72;99610.25;5093698;28;1146;-48
2023/11/11 09:55:52;;;;;;;;;;;;;;;17.09;47.29;99613.66;5085142;28;1910;-45
2023/11/11 09:58:17;;;;;;;;;;;;;;;16.72;47.88;99617.88;5085001;28;1009;-41
2023/11/11 10:00:43;;;;;;;;;;;;;;;16.47;48.70;99605.03;5073415;28;1057;-45
2023/11/11 10:03:08;;;;;;;;;;;;;;;16.60;48.78;99610.06;5082612;28;1832;-44
2023/11/11 10:05:35;;;;;;;;;;;;;;;17.47;46.62;99603.03;5091609;28;1093;-42
2023/11/11 10:08:00;;;;;;;;;;;;;;;16.91;47.92;99597.59;5093859;28;1177;-46
2023/11/11 10:10:26;;;;;;;;;;;;;;;16.61;48.66;99597.63;5072200;28;1101;-47
2023/11/11 10:12:51;;;;;;;;;;;;;;;16.40;48.79;99570.25;5131523;27;1133;-41
2023/11/11 10:15:17;;;;;;;;;;;;;;;16.79;48.69;99565.03;5098493;28;1122;-46
2023/11/11 10:17:42;;;;;;;;;;;;;;;17.30;46.97;99570.94;5097452;28;1902;-43
2023/11/11 10:20:10;;;;;;;;;;;;;;;16.79;48.35;99559.72;5098494;28;1142;-40
2023/11/11 10:22:40;;;;;;;;;;;;;;;16.56;48.67;99547.63;5098395;28;911;-46
2023/11/11 10:25:06;;;;;;;;;;;;;;;16.39;49.06;99552.66;5096654;28;1177;-46
2023/11/11 10:27:32;;;;;;;;;;;;;;;16.94;48.35;99537.06;5096815;28;1107;-45
2023/11/11 10:29:58;;;;;;;;;;;;;;;17.32;46.86;99531.75;5098045;28;1185;-43
2023/11/11 10:32:23;;;;;;;;;;;;;;;16.81;48.44;99537.38;5097741;28;1105;-45
2023/11/11 10:34:48;;;;;;;;;;;;;;;16.52;48.94;99540.91;5097620;28;1850;-47
2023/11/11 10:37:14;;;;;;;;;;;;;;;16.38;49.04;99550.97;5097650;28;1960;-42
2023/11/11 10:39:39;;;;;;;;;;;;;;;16.65;49.27;99537.94;5097565;28;1105;-41
2023/11/11 10:42:05;;;;;;;;;;;;;;;17.36;47.03;99535.81;5097612;28;1152;-43
2023/11/11 10:44:33;;;;;;;;;;;;;;;16.81;48.48;99526.75;5098086;28;1045;-46
2023/11/11 10:46:59;;;;;;;;;;;;;;;16.55;48.92;99534.50;5097330;28;871;-42
2023/11/11 10:49:27;;;;;;;;;;;;;;;16.34;49.18;99535.47;5097415;28;1138;-49
2023/11/11 10:51:53;;;;;;;;;;;;;;;16.53;49.17;99529.31;5097487;28;990;-43
2023/11/11 10:54:20;;;;;;;;;;;;;;;17.32;47.31;99536.22;5097771;28;1066;-45
2023/11/11 10:56:45;;;;;;;;;;;;;;;16.73;48.61;99535.41;5097106;28;1890;-40
2023/11/11 10:59:11;;;;;;;;;;;;;;;16.50;49.23;99522.47;5096930;28;904;-43
2023/11/11 11:01:36;;;;;;;;;;;;;;;17.39;47.39;99500.09;5096267;28;1142;-44
2023/11/11 11:04:02;;;;;;;;;;;;;;;16.88;48.44;99497.78;5085709;28;2636;-46
2023/11/11 11:06:32;;;;;;;;;;;;;;;16.62;48.73;99493.09;5096349;28;1193;-45
2023/11/11 11:09:14;;;;;;;;;;;;;;;16.48;49.14;99510.31;5097322;28;1114;-43
2023/11/11 11:11:58;;;;;;;;;;;;;;;16.68;49.19;99526.22;5095734;28;1067;-44
2023/11/11 11:14:42;;;;;;;;;;;;;;;17.58;46.80;99527.56;5097236;28;1170;-42
2023/11/11 11:17:08;;;;;;;;;;;;;;;16.85;48.46;99528.13;5085179;28;1917;-40
2023/11/11 11:19:49;;;;;;;;;;;;;;;16.59;49.02;99530.56;5095279;28;1145;-41
2023/11/11 11:22:15;;;;;;;;;;;;;;;17.14;48.21;99523.72;5096597;28;1034;-43
2023/11/11 11:24:40;;;;;;;;;;;;;;;17.20;47.75;99522.31;5096438;28;982;-43
2023/11/11 11:27:06;;;;;;;;;;;;;;;16.77;48.92;99523.53;5097279;28;1077;-46
2023/11/11 11:29:31;;;;;;;;;;;;;;;16.53;49.49;99526.66;5097244;28;1121;-43
2023/11/11 11:32:06;;;;;;;;;;;;;;;16.35;49.67;99535.31;5097303;28;1150;-45
2023/11/11 11:34:32;;;;;;;;;;;;;;;16.85;49.02;99543.25;5099848;28;2374;-46
2023/11/11 11:36:57;;;;;;;;;;;;;;;17.28;47.90;99530.38;5096811;28;1961;-42
2023/11/11 11:39:27;;;;;;;;;;;;;;;16.72;49.00;99515.16;5095010;28;1054;-46
2023/11/11 11:42:18;;;;;;;;;;;;;;;16.51;49.41;99502.91;5096860;28;1219;-45
2023/11/11 11:44:52;;;;;;;;;;;;;;;16.32;50.22;99503.75;5084021;28;1153;-41
2023/11/11 11:47:18;;;;;;;;;;;;;;;17.47;47.43;99507.31;5096079;28;999;-42
2023/11/11 11:49:46;;;;;;;;;;;;;;;16.87;48.65;99504.91;5096129;28;1034;-44
2023/11/11 11:52:11;;;;;;;;;;;;;;;16.55;49.38;99502.63;5096574;28;1058;-47
2023/11/11 11:54:36;;;;;;;;;;;;;;;16.36;49.93;99496.38;5096114;28;1058;-46
2023/11/11 11:57:05;;;;;;;;;;;;;;;16.28;50.26;99471.34;5096410;28;1909;-44
2023/11/11 11:59:31;;;;;;;;;;;;;;;17.46;47.60;99465.78;5095828;28;898;-45
2023/11/11 12:01:56;;;;;;;;;;;;;;;16.92;48.86;99455.81;5096914;28;1134;-46
2023/11/11 12:04:22;;;;;;;;;;;;;;;16.57;49.64;99413.88;5096323;28;2365;-39
2023/11/11 12:06:47;;;;;;;;;;;;;;;16.62;49.78;99427.56;5096249;28;1037;-43
2023/11/11 12:09:15;;;;;;;;;;;;;;;17.45;47.57;99406.44;5096135;28;1023;-46
2023/11/11 12:11:40;;;;;;;;;;;;;;;16.83;49.13;99399.13;5095488;28;1034;-47
2023/11/11 12:14:10;;;;;;;;;;;;;;;16.52;49.74;99410.81;5095998;28;1022;-46
2023/11/11 12:16:37;;;;;;;;;;;;;;;16.42;50.02;99407.34;5089762;28;1964;-45
2023/11/11 12:19:12;;;;;;;;;;;;;;;16.33;50.18;99403.78;5089444;28;988;-43
2023/11/11 12:21:41;;;;;;;;;;;;;;;17.32;48.00;99401.50;5063505;28;995;-46
2023/11/11 12:24:08;;;;;;;;;;;;;;;16.78;49.10;99394.25;5092599;28;1027;-48
2023/11/11 12:26:34;;;;;;;;;;;;;;;16.51;49.76;99382.63;5084060;28;1062;-45
2023/11/11 12:29:00;;;;;;;;;;;;;;;17.01;49.13;99388.53;5077931;28;1105;-45
2023/11/11 12:31:25;;;;;;;;;;;;;;;17.05;48.49;99387.22;5095968;28;1092;-42
2023/11/11 12:33:52;;;;;;;;;;;;;;;16.60;49.45;99383.56;5085092;28;1839;-43
2023/11/11 12:36:18;;;;;;;;;;;;;;;17.00;48.91;99373.56;5066448;28;1910;-41
2023/11/11 12:38:45;;;;;;;;;;;;;;;17.18;48.32;99371.00;5076523;28;983;-45
2023/11/11 12:41:11;;;;;;;;;;;;;;;16.71;49.38;99364.78;5089045;28;1194;-46
2023/11/11 12:43:37;;;;;;;;;;;;;;;16.49;49.87;99382.75;5089097;28;1098;-42
2023/11/11 12:46:03;;;;;;;;;;;;;;;16.38;49.88;99367.03;5077549;28;1228;-42
2023/11/11 12:48:29;;;;;;;;;;;;;;;16.20;50.32;99354.47;5071330;28;1672;-41
2023/11/11 12:50:54;;;;;;;;;;;;;;;16.47;50.29;99314.84;5094979;28;1091;-43